createdAt,value
2017-06-13T00:01:04.872Z,17.80
2017-06-13T00:03:32.427Z,17.80
2017-06-13T00:05:59.988Z,17.70
2017-06-13T00:08:27.549Z,17.80
2017-06-13T00:10:55.059Z,17.80
2017-06-13T00:13:22.667Z,17.80
2017-06-13T00:15:50.228Z,17.70
2017-06-13T00:18:17.788Z,17.70
2017-06-13T00:20:45.303Z,17.60
2017-06-13T00:23:12.899Z,17.60
2017-06-13T00:25:40.465Z,17.60
2017-06-13T00:28:07.967Z,17.50
2017-06-13T00:30:35.572Z,17.40
2017-06-13T00:33:03.136Z,17.40
2017-06-13T00:35:30.796Z,17.40
2017-06-13T00:37:58.355Z,17.30
2017-06-13T00:40:25.911Z,17.30
2017-06-13T00:42:53.481Z,17.20
2017-06-13T00:45:21.003Z,17.20
2017-06-13T00:47:49.274Z,17.30
2017-06-13T00:50:17.588Z,17.20
2017-06-13T00:52:45.139Z,17.20
2017-06-13T00:55:12.703Z,17.20
2017-06-13T00:57:40.207Z,17.20
2017-06-13T01:00:07.743Z,17.10
2017-06-13T01:02:35.247Z,17.20
2017-06-13T01:05:03.515Z,17.20
2017-06-13T01:07:31.120Z,17.20
2017-06-13T01:09:58.627Z,17.10
2017-06-13T01:12:26.159Z,17.10
2017-06-13T01:14:53.667Z,17.10
2017-06-13T01:17:21.960Z,17.00
2017-06-13T01:19:49.523Z,17.00
2017-06-13T01:22:17.057Z,16.90
2017-06-13T01:24:45.331Z,17.00
2017-06-13T01:27:13.618Z,16.90
2017-06-13T01:29:41.127Z,16.90
2017-06-13T01:32:08.747Z,17.00
2017-06-13T01:34:36.259Z,16.90
2017-06-13T01:37:03.867Z,16.90
2017-06-13T01:39:31.370Z,16.90
2017-06-13T01:41:58.983Z,16.80
2017-06-13T01:44:26.952Z,16.90
2017-06-13T01:46:54.463Z,16.80
2017-06-13T01:49:21.984Z,16.80
2017-06-13T01:51:49.537Z,16.70
2017-06-13T01:54:17.058Z,16.60
2017-06-13T01:56:45.327Z,16.60
2017-06-13T01:59:13.615Z,16.50
2017-06-13T02:01:41.899Z,16.40
2017-06-13T02:04:09.423Z,16.40
2017-06-13T02:06:36.933Z,16.40
2017-06-13T02:09:04.456Z,16.30
2017-06-13T02:11:32.763Z,16.10
2017-06-13T02:14:00.328Z,16.10
2017-06-13T02:16:27.879Z,16.20
2017-06-13T02:18:55.403Z,16.20
2017-06-13T02:21:22.907Z,16.10
2017-06-13T02:23:50.411Z,16.10
2017-06-13T02:26:17.939Z,16.10
2017-06-13T02:28:45.448Z,16.10
2017-06-13T02:31:13.033Z,16.10
2017-06-13T02:33:40.539Z,16.10
2017-06-13T02:36:08.183Z,16.10
2017-06-13T02:38:35.963Z,16.10
2017-06-13T02:41:03.484Z,16.00
2017-06-13T02:43:30.989Z,16.10
2017-06-13T02:45:58.587Z,16.10
2017-06-13T02:48:26.094Z,16.00
2017-06-13T02:50:53.712Z,15.80
2017-06-13T02:53:21.804Z,15.80
2017-06-13T02:55:49.331Z,15.80
2017-06-13T02:58:16.999Z,15.80
2017-06-13T03:00:44.527Z,15.80
2017-06-13T03:03:12.830Z,15.60
2017-06-13T03:05:40.340Z,15.60
2017-06-13T03:08:07.863Z,15.60
2017-06-13T03:10:35.406Z,15.40
2017-06-13T03:13:02.931Z,15.40
2017-06-13T03:15:31.203Z,15.50
2017-06-13T03:17:58.736Z,15.50
2017-06-13T03:20:26.238Z,15.50
2017-06-13T03:22:54.848Z,15.50
2017-06-13T03:25:22.359Z,15.50
2017-06-13T03:27:49.964Z,15.50
2017-06-13T03:30:17.947Z,15.50
2017-06-13T03:32:45.472Z,15.60
2017-06-13T03:35:13.442Z,15.60
2017-06-13T03:37:41.720Z,15.50
2017-06-13T03:40:09.289Z,15.60
2017-06-13T03:42:36.816Z,15.60
2017-06-13T03:45:05.127Z,15.60
2017-06-13T03:47:32.688Z,15.60
2017-06-13T03:50:00.195Z,15.60
2017-06-13T03:52:27.704Z,15.60
2017-06-13T03:54:55.676Z,15.60
2017-06-13T03:57:23.495Z,15.60
2017-06-13T03:59:51.084Z,15.70
2017-06-13T04:02:18.657Z,15.70
2017-06-13T04:04:46.211Z,15.70
2017-06-13T04:07:13.725Z,15.70
2017-06-13T04:09:41.328Z,15.70
2017-06-13T04:12:08.839Z,15.60
2017-06-13T04:14:36.443Z,15.60
2017-06-13T04:17:03.947Z,15.70
2017-06-13T04:19:31.570Z,15.70
2017-06-13T04:21:59.123Z,15.70
2017-06-13T04:24:26.688Z,15.70
2017-06-13T04:26:54.190Z,15.60
2017-06-13T04:29:21.695Z,15.70
2017-06-13T04:31:49.227Z,15.70
2017-06-13T04:34:17.557Z,15.90
2017-06-13T04:36:45.075Z,15.90
2017-06-13T04:39:12.581Z,15.90
2017-06-13T04:41:40.103Z,15.90
2017-06-13T04:44:07.606Z,16.00
2017-06-13T04:46:35.130Z,16.00
2017-06-13T04:49:02.635Z,16.00
2017-06-13T04:51:30.159Z,16.00
2017-06-13T04:53:57.694Z,16.10
2017-06-13T04:56:25.216Z,16.20
2017-06-13T04:58:52.815Z,16.30
2017-06-13T05:01:20.339Z,16.30
2017-06-13T05:03:47.842Z,16.40
2017-06-13T05:06:15.388Z,16.50
2017-06-13T05:08:42.952Z,16.50
2017-06-13T05:11:10.457Z,16.50
2017-06-13T05:13:37.979Z,16.60
2017-06-13T05:16:05.528Z,16.60
2017-06-13T05:18:33.088Z,16.60
2017-06-13T05:21:00.756Z,16.60
2017-06-13T05:23:28.290Z,16.70
2017-06-13T05:25:56.463Z,16.90
2017-06-13T05:28:23.991Z,17.00
2017-06-13T05:30:51.495Z,17.10
2017-06-13T05:33:19.019Z,17.20
2017-06-13T05:35:47.798Z,17.40
2017-06-13T05:38:15.332Z,17.40
2017-06-13T05:40:42.839Z,17.50
2017-06-13T05:43:10.418Z,17.60
2017-06-13T05:45:37.972Z,17.70
2017-06-13T05:48:05.485Z,17.80
2017-06-13T05:50:33.087Z,17.90
2017-06-13T05:53:00.648Z,18.00
2017-06-13T05:55:28.210Z,18.00
2017-06-13T05:57:55.719Z,18.10
2017-06-13T06:00:23.331Z,18.10
2017-06-13T06:02:50.835Z,18.30
2017-06-13T06:05:18.363Z,18.30
2017-06-13T06:07:45.867Z,18.30
2017-06-13T06:10:14.177Z,18.50
2017-06-13T06:12:41.684Z,18.50
2017-06-13T06:15:09.290Z,18.60
2017-06-13T06:17:36.795Z,18.80
2017-06-13T06:20:04.410Z,18.90
2017-06-13T06:22:31.915Z,19.00
2017-06-13T06:24:59.424Z,19.10
2017-06-13T06:27:26.996Z,19.30
2017-06-13T06:29:54.502Z,19.30
2017-06-13T06:32:22.095Z,19.40
2017-06-13T06:34:49.663Z,19.50
2017-06-13T06:37:17.183Z,19.60
2017-06-13T06:39:44.699Z,19.50
2017-06-13T06:42:12.235Z,19.60
2017-06-13T06:44:39.747Z,19.50
2017-06-13T06:47:07.267Z,19.60
2017-06-13T06:49:34.817Z,19.70
2017-06-13T06:52:02.338Z,19.80
2017-06-13T06:54:30.610Z,19.90
2017-06-13T06:56:58.138Z,19.90
2017-06-13T06:59:25.668Z,20.00
2017-06-13T07:01:53.175Z,20.00
2017-06-13T07:04:20.780Z,20.00
2017-06-13T07:06:48.291Z,19.90
2017-06-13T07:09:15.811Z,20.00
2017-06-13T07:11:43.319Z,20.00
2017-06-13T07:14:11.607Z,20.20
2017-06-13T07:16:39.879Z,20.30
2017-06-13T07:19:08.164Z,20.40
2017-06-13T07:21:36.460Z,20.30
2017-06-13T07:24:03.980Z,20.30
2017-06-13T07:26:32.430Z,20.30
2017-06-13T07:28:59.951Z,20.30
2017-06-13T07:31:27.463Z,20.40
2017-06-13T07:33:55.067Z,20.50
2017-06-13T07:36:22.578Z,20.60
2017-06-13T07:38:50.080Z,20.70
2017-06-13T07:41:17.642Z,20.70
2017-06-13T07:43:45.143Z,20.70
2017-06-13T07:46:12.667Z,20.70
2017-06-13T07:48:40.172Z,20.70
2017-06-13T07:51:07.775Z,20.70
2017-06-13T07:53:35.287Z,20.70
2017-06-13T07:56:02.827Z,20.90
2017-06-13T07:58:30.326Z,21.00
2017-06-13T08:00:58.612Z,21.00
2017-06-13T08:03:26.264Z,21.00
2017-06-13T08:05:54.564Z,21.10
2017-06-13T08:08:22.162Z,21.10
2017-06-13T08:10:49.687Z,21.20
2017-06-13T08:13:17.238Z,21.30
2017-06-13T08:15:44.802Z,21.40
2017-06-13T08:18:12.314Z,21.50
2017-06-13T08:20:39.824Z,21.60
2017-06-13T08:23:07.378Z,21.50
2017-06-13T08:25:34.934Z,21.50
2017-06-13T08:28:02.457Z,21.50
2017-06-13T08:30:30.051Z,21.60
2017-06-13T08:32:57.614Z,21.70
2017-06-13T08:35:25.119Z,21.70
2017-06-13T08:37:52.639Z,21.60
2017-06-13T08:40:20.150Z,21.50
2017-06-13T08:42:47.743Z,21.40
2017-06-13T08:45:15.249Z,21.20
2017-06-13T08:47:42.858Z,21.30
2017-06-13T08:50:10.547Z,21.40
2017-06-13T08:52:38.051Z,21.40
2017-06-13T08:55:06.365Z,21.70
2017-06-13T08:57:33.873Z,21.70
2017-06-13T09:00:01.479Z,21.80
2017-06-13T09:02:29.038Z,21.90
2017-06-13T09:04:56.559Z,21.90
2017-06-13T09:07:24.074Z,22.00
2017-06-13T09:09:51.606Z,22.00
2017-06-13T09:12:19.731Z,22.00
2017-06-13T09:14:47.247Z,22.10
2017-06-13T09:17:14.750Z,22.30
2017-06-13T09:19:42.354Z,22.40
2017-06-13T09:22:10.438Z,22.50
2017-06-13T09:24:37.975Z,22.50
2017-06-13T09:27:06.162Z,22.40
2017-06-13T09:29:34.035Z,22.50
2017-06-13T09:32:01.568Z,22.60
2017-06-13T09:34:29.842Z,22.80
2017-06-13T09:36:58.131Z,22.80
2017-06-13T09:39:25.632Z,22.80
2017-06-13T09:41:53.151Z,22.80
2017-06-13T09:44:20.714Z,22.90
2017-06-13T09:46:48.234Z,22.90
2017-06-13T09:49:15.827Z,22.80
2017-06-13T09:51:43.346Z,22.90
2017-06-13T09:54:10.853Z,23.00
2017-06-13T09:56:38.392Z,23.00
2017-06-13T09:59:05.966Z,23.10
2017-06-13T10:01:33.826Z,23.20
2017-06-13T10:04:01.347Z,23.20
2017-06-13T10:06:29.574Z,23.10
2017-06-13T10:08:57.095Z,23.10
2017-06-13T10:11:25.523Z,23.20
2017-06-13T10:13:53.262Z,23.10
2017-06-13T10:16:21.191Z,23.30
2017-06-13T10:18:48.787Z,23.40
2017-06-13T10:21:16.391Z,23.40
2017-06-13T10:23:44.014Z,23.50
2017-06-13T10:26:11.565Z,23.60
2017-06-13T10:28:39.127Z,23.70
2017-06-13T10:31:06.635Z,23.70
2017-06-13T10:33:34.242Z,23.80
2017-06-13T10:36:02.567Z,23.80
2017-06-13T10:38:30.074Z,23.90
2017-06-13T10:40:57.642Z,23.90
2017-06-13T10:43:25.326Z,24.00
2017-06-13T10:45:52.843Z,24.10
2017-06-13T10:48:21.887Z,24.40
2017-06-13T10:50:49.407Z,24.40
2017-06-13T10:53:16.902Z,24.70
2017-06-13T10:55:44.526Z,25.20
2017-06-13T10:58:12.031Z,25.70
2017-06-13T11:00:39.646Z,26.30
2017-06-13T11:03:07.155Z,26.60
2017-06-13T11:05:34.763Z,26.60
2017-06-13T11:08:02.478Z,26.60
2017-06-13T11:10:30.006Z,26.50
2017-06-13T11:12:57.529Z,26.70
2017-06-13T11:15:25.833Z,27.10
2017-06-13T11:17:53.734Z,27.00
2017-06-13T11:20:21.235Z,27.20
2017-06-13T11:22:48.780Z,27.10
2017-06-13T11:25:17.059Z,26.60
2017-06-13T11:27:45.342Z,26.40
2017-06-13T11:30:12.847Z,26.40
2017-06-13T11:32:40.368Z,26.20
2017-06-13T11:35:07.867Z,26.10
2017-06-13T11:37:35.386Z,25.80
2017-06-13T11:40:02.890Z,25.20
2017-06-13T11:42:30.414Z,24.90
2017-06-13T11:44:57.919Z,24.80
2017-06-13T11:47:25.454Z,24.80
2017-06-13T11:49:52.955Z,24.80
2017-06-13T11:52:21.251Z,24.80
2017-06-13T11:54:48.807Z,24.80
2017-06-13T11:57:16.314Z,24.80
2017-06-13T11:59:43.839Z,24.80
2017-06-13T12:02:11.391Z,24.90
2017-06-13T12:04:38.924Z,25.00
2017-06-13T12:07:07.222Z,25.00
2017-06-13T12:09:34.774Z,25.00
2017-06-13T12:12:02.282Z,25.00
2017-06-13T12:14:29.899Z,25.10
2017-06-13T12:16:57.570Z,25.10
2017-06-13T12:19:25.091Z,25.10
2017-06-13T12:21:53.358Z,24.90
2017-06-13T12:24:20.964Z,24.90
2017-06-13T12:26:48.470Z,25.00
2017-06-13T12:29:15.975Z,25.10
2017-06-13T12:31:43.494Z,24.90
2017-06-13T12:34:11.763Z,25.10
2017-06-13T12:36:39.282Z,25.10
2017-06-13T12:39:07.491Z,25.00
2017-06-13T12:41:35.091Z,25.00
2017-06-13T12:44:02.655Z,24.70
2017-06-13T12:46:30.219Z,24.70
2017-06-13T12:48:57.726Z,24.80
2017-06-13T12:51:25.327Z,24.80
2017-06-13T12:53:52.827Z,24.90
2017-06-13T12:56:21.059Z,25.00
2017-06-13T12:58:48.558Z,25.00
2017-06-13T13:01:16.062Z,25.10
2017-06-13T13:03:44.455Z,25.10
2017-06-13T13:06:12.026Z,25.10
2017-06-13T13:08:39.574Z,25.00
2017-06-13T13:11:07.087Z,25.00
2017-06-13T13:13:34.686Z,25.10
2017-06-13T13:16:02.259Z,25.20
2017-06-13T13:18:29.806Z,25.20
2017-06-13T13:20:57.315Z,25.20
2017-06-13T13:23:24.836Z,25.30
2017-06-13T13:25:52.383Z,25.10
2017-06-13T13:28:19.886Z,25.10
2017-06-13T13:30:47.410Z,25.10
2017-06-13T13:33:15.163Z,25.00
2017-06-13T13:35:42.682Z,25.00
2017-06-13T13:38:10.795Z,25.10
2017-06-13T13:40:38.352Z,25.20
2017-06-13T13:43:05.862Z,25.20
2017-06-13T13:45:33.383Z,25.10
2017-06-13T13:48:00.886Z,25.10
2017-06-13T13:50:28.407Z,25.20
2017-06-13T13:52:55.943Z,25.40
2017-06-13T13:55:23.458Z,25.60
2017-06-13T13:57:51.058Z,25.60
2017-06-13T14:00:18.557Z,25.60
2017-06-13T14:02:46.181Z,25.70
2017-06-13T14:05:13.687Z,25.60
2017-06-13T14:07:41.307Z,25.70
2017-06-13T14:10:09.029Z,25.70
2017-06-13T14:12:37.322Z,25.90
2017-06-13T14:15:05.594Z,26.10
2017-06-13T14:17:33.887Z,26.20
2017-06-13T14:20:01.390Z,26.20
2017-06-13T14:22:29.006Z,26.40
2017-06-13T14:24:56.511Z,26.50
2017-06-13T14:27:24.031Z,26.50
2017-06-13T14:29:51.539Z,26.60
2017-06-13T14:32:19.150Z,26.70
2017-06-13T14:34:46.650Z,26.80
2017-06-13T14:37:14.258Z,27.00
2017-06-13T14:39:41.815Z,27.20
2017-06-13T14:42:09.578Z,27.20
2017-06-13T14:44:37.147Z,27.40
2017-06-13T14:47:04.699Z,27.70
2017-06-13T14:49:32.254Z,27.80
2017-06-13T14:51:59.750Z,27.90
2017-06-13T14:54:27.271Z,28.10
2017-06-13T14:56:54.786Z,28.20
2017-06-13T14:59:22.320Z,28.50
2017-06-13T15:01:50.103Z,28.30
2017-06-13T15:04:17.714Z,28.30
2017-06-13T15:06:45.219Z,28.50
2017-06-13T15:09:12.830Z,28.40
2017-06-13T15:11:40.387Z,28.50
2017-06-13T15:14:07.951Z,28.50
2017-06-13T15:16:35.455Z,28.40
2017-06-13T15:19:02.962Z,28.50
2017-06-13T15:21:30.479Z,28.40
2017-06-13T15:23:58.078Z,28.60
2017-06-13T15:26:25.599Z,28.90
2017-06-13T15:28:53.927Z,29.20
2017-06-13T15:31:21.475Z,30.30
2017-06-13T15:33:49.043Z,31.10
2017-06-13T15:36:16.595Z,31.40
2017-06-13T15:38:44.098Z,32.10
2017-06-13T15:41:11.617Z,32.30
2017-06-13T15:43:39.167Z,32.70
2017-06-13T15:46:06.697Z,32.70
2017-06-13T15:48:34.299Z,32.90
2017-06-13T15:51:01.846Z,32.90
2017-06-13T15:53:29.407Z,33.10
2017-06-13T15:55:57.167Z,33.60
2017-06-13T15:58:24.732Z,34.10
2017-06-13T16:00:52.247Z,34.10
2017-06-13T16:03:19.762Z,34.60
2017-06-13T16:05:47.262Z,35.60
2017-06-13T16:08:14.859Z,36.30
2017-06-13T16:10:42.419Z,37.20
2017-06-13T16:13:09.978Z,37.90
2017-06-13T16:15:37.482Z,38.20
2017-06-13T16:18:05.095Z,38.60
2017-06-13T16:20:32.603Z,38.50
2017-06-13T16:23:00.215Z,38.00
2017-06-13T16:25:27.723Z,37.90
2017-06-13T16:27:55.249Z,38.40
2017-06-13T16:30:22.786Z,38.70
2017-06-13T16:32:50.316Z,38.90
2017-06-13T16:35:18.587Z,36.90
2017-06-13T16:37:47.002Z,35.20
2017-06-13T16:40:14.512Z,35.10
2017-06-13T16:42:42.128Z,33.90
2017-06-13T16:45:09.658Z,32.80
2017-06-13T16:47:37.927Z,33.30
2017-06-13T16:50:06.233Z,33.40
2017-06-13T16:52:33.791Z,33.40
2017-06-13T16:55:01.347Z,32.50
2017-06-13T16:57:28.850Z,31.90
2017-06-13T16:59:56.376Z,31.30
2017-06-13T17:02:23.878Z,30.60
2017-06-13T17:04:51.403Z,29.90
2017-06-13T17:07:18.920Z,29.10
2017-06-13T17:09:46.619Z,28.70
2017-06-13T17:12:14.122Z,28.10
2017-06-13T17:14:42.419Z,27.60
2017-06-13T17:17:10.143Z,27.50
2017-06-13T17:19:37.767Z,27.40
2017-06-13T17:22:05.324Z,27.10
2017-06-13T17:24:32.878Z,26.70
2017-06-13T17:27:00.387Z,26.40
2017-06-13T17:29:28.008Z,26.30
2017-06-13T17:31:55.550Z,26.20
2017-06-13T17:34:23.430Z,26.10
2017-06-13T17:36:51.726Z,26.10
2017-06-13T17:39:19.264Z,26.00
2017-06-13T17:41:46.897Z,26.00
2017-06-13T17:44:15.186Z,25.90
2017-06-13T17:46:42.752Z,25.90
2017-06-13T17:49:10.263Z,25.70
2017-06-13T17:51:37.782Z,25.60
2017-06-13T17:54:05.286Z,25.70
2017-06-13T17:56:33.575Z,26.70
2017-06-13T17:59:01.847Z,26.80
2017-06-13T18:01:30.151Z,26.70
2017-06-13T18:03:58.267Z,26.70
2017-06-13T18:06:25.771Z,26.50
2017-06-13T18:08:53.340Z,26.30
2017-06-13T18:11:21.420Z,26.10
2017-06-13T18:13:48.971Z,26.00
2017-06-13T18:16:16.487Z,25.70
2017-06-13T18:18:44.094Z,25.30
2017-06-13T18:21:11.652Z,25.10
2017-06-13T18:23:39.193Z,24.90
2017-06-13T18:26:06.702Z,24.60
2017-06-13T18:28:34.245Z,24.50
2017-06-13T18:31:01.751Z,24.40
2017-06-13T18:33:30.055Z,24.10
2017-06-13T18:35:57.621Z,24.10
2017-06-13T18:38:25.176Z,24.00
2017-06-13T18:40:52.687Z,23.80
2017-06-13T18:43:20.358Z,23.70
2017-06-13T18:45:47.882Z,23.60
2017-06-13T18:48:15.411Z,23.50
2017-06-13T18:50:42.943Z,23.50
2017-06-13T18:53:12.029Z,23.40
2017-06-13T18:55:40.339Z,23.30
2017-06-13T18:58:07.854Z,23.20
2017-06-13T19:00:35.380Z,23.20
2017-06-13T19:03:02.887Z,23.10
2017-06-13T19:05:31.175Z,23.00
2017-06-13T19:07:58.763Z,23.00
2017-06-13T19:10:26.298Z,22.90
2017-06-13T19:12:53.803Z,22.80
2017-06-13T19:15:21.427Z,22.80
2017-06-13T19:17:48.999Z,22.70
2017-06-13T19:20:16.535Z,22.60
2017-06-13T19:22:44.054Z,22.60
2017-06-13T19:25:11.663Z,22.50
2017-06-13T19:27:39.171Z,22.40
2017-06-13T19:30:06.680Z,22.40
2017-06-13T19:32:34.211Z,22.40
2017-06-13T19:35:02.517Z,22.30
2017-06-13T19:37:30.040Z,22.20
2017-06-13T19:39:58.312Z,22.10
2017-06-13T19:42:26.599Z,22.10
2017-06-13T19:44:54.871Z,22.10
2017-06-13T19:47:23.178Z,22.10
2017-06-13T19:49:50.686Z,22.00
2017-06-13T19:52:18.207Z,22.10
2017-06-13T19:54:45.714Z,22.00
2017-06-13T19:57:14.023Z,22.00
2017-06-13T19:59:41.683Z,21.90
2017-06-13T20:02:09.251Z,21.90
2017-06-13T20:04:36.772Z,21.80
2017-06-13T20:07:05.083Z,21.80
2017-06-13T20:09:32.594Z,21.80
2017-06-13T20:12:00.199Z,21.70
2017-06-13T20:14:27.759Z,21.70
2017-06-13T20:16:55.274Z,21.60
2017-06-13T20:19:22.874Z,21.60
2017-06-13T20:21:50.385Z,21.40
2017-06-13T20:24:17.906Z,21.40
2017-06-13T20:26:45.407Z,21.30
2017-06-13T20:29:13.861Z,21.30
2017-06-13T20:31:41.372Z,21.20
2017-06-13T20:34:09.659Z,21.10
2017-06-13T20:36:37.166Z,21.10
2017-06-13T20:39:04.703Z,21.10
2017-06-13T20:41:32.208Z,21.10
2017-06-13T20:44:00.514Z,21.00
2017-06-13T20:46:28.070Z,20.90
2017-06-13T20:48:55.575Z,20.90
2017-06-13T20:51:23.098Z,20.80
2017-06-13T20:53:50.646Z,20.80
2017-06-13T20:56:18.203Z,20.80
2017-06-13T20:58:45.712Z,20.70
2017-06-13T21:01:13.283Z,20.60
2017-06-13T21:03:41.515Z,20.50
2017-06-13T21:06:09.055Z,20.50
2017-06-13T21:08:36.567Z,20.40
2017-06-13T21:11:04.091Z,20.40
2017-06-13T21:13:31.631Z,20.40
2017-06-13T21:15:59.917Z,20.40
2017-06-13T21:18:27.418Z,20.40
2017-06-13T21:20:54.942Z,20.40
2017-06-13T21:23:22.447Z,20.40
2017-06-13T21:25:50.715Z,20.30
2017-06-13T21:28:18.311Z,20.30
2017-06-13T21:30:45.818Z,20.20
2017-06-13T21:33:13.430Z,20.10
2017-06-13T21:35:40.995Z,20.00
2017-06-13T21:38:08.550Z,20.00
2017-06-13T21:40:36.311Z,20.00
2017-06-13T21:43:03.835Z,20.00
2017-06-13T21:45:31.335Z,20.00
2017-06-13T21:47:58.860Z,20.00
2017-06-13T21:50:27.127Z,19.90
2017-06-13T21:52:55.444Z,19.90
2017-06-13T21:55:23.734Z,19.90
2017-06-13T21:57:51.235Z,19.80
2017-06-13T22:00:18.827Z,19.80
2017-06-13T22:02:46.394Z,19.80
2017-06-13T22:05:14.471Z,19.70
2017-06-13T22:07:42.488Z,19.80
2017-06-13T22:10:10.097Z,19.70
2017-06-13T22:12:37.609Z,19.70
2017-06-13T22:15:05.220Z,19.80
2017-06-13T22:17:33.690Z,19.80
2017-06-13T22:20:01.218Z,19.80
2017-06-13T22:22:29.527Z,19.80
2017-06-13T22:24:57.319Z,19.70
2017-06-13T22:27:24.834Z,19.80
2017-06-13T22:29:53.638Z,19.80
2017-06-13T22:32:21.238Z,19.80
2017-06-13T22:34:48.747Z,19.70
2017-06-13T22:37:16.271Z,19.70
2017-06-13T22:39:43.775Z,19.70
2017-06-13T22:42:11.757Z,19.70
2017-06-13T22:44:39.295Z,19.70
2017-06-13T22:47:06.811Z,19.60
2017-06-13T22:49:34.316Z,19.70
2017-06-13T22:52:01.871Z,19.60
2017-06-13T22:54:29.384Z,19.50
2017-06-13T22:56:56.910Z,19.60
2017-06-13T22:59:24.406Z,19.50
2017-06-13T23:01:51.911Z,19.50
2017-06-13T23:04:19.495Z,19.50
2017-06-13T23:06:47.000Z,19.40
2017-06-13T23:09:15.287Z,19.30
2017-06-13T23:11:42.791Z,19.30
2017-06-13T23:14:10.318Z,19.30
2017-06-13T23:16:38.542Z,19.20
2017-06-13T23:19:06.131Z,19.20
2017-06-13T23:21:34.426Z,19.20
2017-06-13T23:24:01.982Z,19.10
2017-06-13T23:26:29.539Z,19.10
2017-06-13T23:28:57.098Z,19.10
2017-06-13T23:31:24.659Z,19.10
2017-06-13T23:33:52.162Z,19.00
2017-06-13T23:36:19.774Z,19.00
2017-06-13T23:38:47.282Z,18.90
2017-06-13T23:41:15.167Z,18.80
2017-06-13T23:43:43.475Z,18.50
2017-06-13T23:46:10.992Z,18.50
2017-06-13T23:48:38.496Z,18.40
2017-06-13T23:51:06.031Z,18.40
2017-06-13T23:53:34.338Z,18.30
2017-06-13T23:56:01.847Z,18.30
2017-06-13T23:58:29.447Z,18.30
